createdAt,value
2018-03-06T00:02:04.243Z,0.40
2018-03-06T00:04:31.847Z,0.40
2018-03-06T00:06:59.438Z,0.40
2018-03-06T00:09:27.055Z,0.40
2018-03-06T00:11:54.715Z,0.40
2018-03-06T00:14:22.350Z,0.30
2018-03-06T00:16:49.980Z,0.30
2018-03-06T00:19:17.612Z,0.20
2018-03-06T00:21:45.248Z,0.10
2018-03-06T00:24:13.602Z,0.00
2018-03-06T00:26:41.280Z,0.00
2018-03-06T00:29:08.878Z,0.10
2018-03-06T00:31:36.476Z,0.10
2018-03-06T00:34:04.074Z,0.20
2018-03-06T00:36:32.450Z,0.30
2018-03-06T00:39:00.800Z,0.30
2018-03-06T00:41:28.455Z,0.20
2018-03-06T00:43:56.038Z,0.20
2018-03-06T00:46:23.620Z,0.20
2018-03-06T00:48:51.263Z,0.10
2018-03-06T00:51:18.876Z,0.00
2018-03-06T00:53:46.509Z,-0.10
2018-03-06T00:56:14.165Z,-0.10
2018-03-06T00:58:41.807Z,0.00
2018-03-06T01:01:09.458Z,0.10
2018-03-06T01:03:37.103Z,0.00
2018-03-06T01:06:04.700Z,0.00
2018-03-06T01:08:33.126Z,0.10
2018-03-06T01:11:00.696Z,0.10
2018-03-06T01:13:28.353Z,0.10
2018-03-06T01:15:55.980Z,0.10
2018-03-06T01:18:23.562Z,0.10
2018-03-06T01:20:51.247Z,0.00
2018-03-06T01:23:18.862Z,0.00
2018-03-06T01:25:46.508Z,0.00
2018-03-06T01:28:14.112Z,0.00
2018-03-06T01:30:41.746Z,0.00
2018-03-06T01:33:09.346Z,-0.10
2018-03-06T01:35:37.020Z,-0.20
2018-03-06T01:38:04.602Z,-0.30
2018-03-06T01:40:32.966Z,-0.40
2018-03-06T01:43:01.355Z,-0.50
2018-03-06T01:45:29.744Z,-0.60
2018-03-06T01:47:58.135Z,-0.50
2018-03-06T01:50:25.780Z,-0.50
2018-03-06T01:52:54.178Z,-0.70
2018-03-06T01:55:22.607Z,-0.70
2018-03-06T01:57:50.215Z,-0.60
2018-03-06T02:00:17.814Z,-0.60
2018-03-06T02:02:45.468Z,-0.60
2018-03-06T02:05:13.106Z,-0.60
2018-03-06T02:07:40.727Z,-0.60
2018-03-06T02:10:08.371Z,-0.60
2018-03-06T02:12:36.007Z,-0.70
2018-03-06T02:15:03.596Z,-0.80
2018-03-06T02:17:31.206Z,-0.90
2018-03-06T02:19:58.794Z,-1.00
2018-03-06T02:31:24.362Z,-0.90
2018-03-06T02:33:52.062Z,-1.10
2018-03-06T02:36:20.459Z,-1.00
2018-03-06T02:38:48.915Z,-1.00
2018-03-06T02:41:16.510Z,-1.00
2018-03-06T02:43:44.127Z,-1.10
2018-03-06T02:46:11.755Z,-1.10
2018-03-06T02:48:39.359Z,-1.20
2018-03-06T02:51:06.991Z,-1.20
2018-03-06T02:53:34.658Z,-1.20
2018-03-06T02:56:02.301Z,-1.20
2018-03-06T02:58:29.905Z,-1.10
2018-03-06T03:00:57.552Z,-1.00
2018-03-06T03:03:25.152Z,-0.90
2018-03-06T03:05:52.784Z,-1.00
2018-03-06T03:08:20.383Z,-1.00
2018-03-06T03:10:47.970Z,-1.00
2018-03-06T03:13:15.575Z,-0.90
2018-03-06T03:15:43.912Z,-1.00
2018-03-06T03:18:11.535Z,-1.00
2018-03-06T03:20:39.149Z,-0.90
2018-03-06T03:23:06.816Z,-1.00
2018-03-06T03:25:34.407Z,-1.00
2018-03-06T03:28:02.824Z,-0.90
2018-03-06T03:30:30.408Z,-0.90
2018-03-06T03:32:58.026Z,-1.00
2018-03-06T03:35:25.650Z,-1.10
2018-03-06T03:37:53.243Z,-1.20
2018-03-06T03:40:20.878Z,-1.30
2018-03-06T03:42:49.234Z,-1.60
2018-03-06T03:45:16.902Z,-1.60
2018-03-06T03:47:44.477Z,-1.60
2018-03-06T03:50:12.116Z,-1.60
2018-03-06T03:52:39.722Z,-1.60
2018-03-06T03:55:07.359Z,-1.60
2018-03-06T03:57:35.752Z,-1.60
2018-03-06T04:00:04.160Z,-1.60
2018-03-06T04:02:31.811Z,-1.70
2018-03-06T04:04:59.432Z,-1.70
2018-03-06T04:07:27.062Z,-1.70
2018-03-06T04:09:54.673Z,-1.70
2018-03-06T04:12:23.066Z,-1.60
2018-03-06T04:14:50.692Z,-1.60
2018-03-06T04:17:18.396Z,-1.60
2018-03-06T04:19:46.778Z,-1.50
2018-03-06T04:22:14.359Z,-1.50
2018-03-06T04:24:41.968Z,-1.50
2018-03-06T04:27:10.377Z,-1.60
2018-03-06T04:29:37.999Z,-1.60
2018-03-06T04:32:06.413Z,-1.70
2018-03-06T04:34:34.013Z,-1.70
2018-03-06T04:37:01.606Z,-1.80
2018-03-06T04:39:29.220Z,-1.80
2018-03-06T04:41:56.823Z,-1.90
2018-03-06T04:44:24.443Z,-1.90
2018-03-06T04:46:52.110Z,-1.80
2018-03-06T04:49:19.738Z,-1.80
2018-03-06T04:51:47.324Z,-1.80
2018-03-06T04:54:14.974Z,-1.90
2018-03-06T04:56:42.568Z,-1.90
2018-03-06T04:59:10.224Z,-1.80
2018-03-06T05:01:38.738Z,-1.80
2018-03-06T05:04:13.577Z,-1.80
2018-03-06T05:06:49.284Z,-1.90
2018-03-06T05:09:40.876Z,-1.90
2018-03-06T05:12:26.929Z,-1.90
2018-03-06T05:15:13.714Z,-2.00
2018-03-06T05:17:41.313Z,-2.00
2018-03-06T05:20:09.680Z,-2.20
2018-03-06T05:22:39.124Z,-2.20
2018-03-06T05:25:06.749Z,-2.20
2018-03-06T05:27:34.404Z,-2.20
2018-03-06T05:30:02.059Z,-2.10
2018-03-06T05:32:29.667Z,-2.10
2018-03-06T05:34:57.320Z,-2.00
2018-03-06T05:37:24.903Z,-1.90
2018-03-06T05:39:52.536Z,-1.80
2018-03-06T05:42:20.125Z,-1.80
2018-03-06T05:44:47.775Z,-1.80
2018-03-06T05:47:15.454Z,-1.80
2018-03-06T05:49:43.016Z,-1.70
2018-03-06T05:52:10.638Z,-1.70
2018-03-06T05:54:38.271Z,-1.70
2018-03-06T05:57:05.850Z,-1.70
2018-03-06T05:59:33.455Z,-1.80
2018-03-06T06:02:01.091Z,-1.80
2018-03-06T06:04:28.674Z,-1.80
2018-03-06T06:06:56.327Z,-1.90
2018-03-06T06:09:23.903Z,-1.90
2018-03-06T06:12:12.019Z,-1.90
2018-03-06T06:17:48.414Z,-1.60
2018-03-06T06:20:15.999Z,-1.60
2018-03-06T06:22:43.679Z,-1.50
2018-03-06T06:25:11.317Z,-1.40
2018-03-06T06:33:30.931Z,-1.10
2018-03-06T06:42:07.027Z,-0.80
2018-03-06T06:44:34.682Z,-0.80
2018-03-06T06:47:02.283Z,-0.70
2018-03-06T06:49:30.710Z,-0.50
2018-03-06T06:51:58.331Z,-0.50
2018-03-06T06:54:26.765Z,-0.20
2018-03-06T06:56:54.374Z,-0.20
2018-03-06T06:59:22.746Z,0.10
2018-03-06T07:01:54.120Z,0.10
2018-03-06T07:04:21.776Z,0.30
2018-03-06T07:06:49.311Z,0.40
2018-03-06T07:09:16.917Z,0.60
2018-03-06T07:11:44.540Z,0.80
2018-03-06T07:14:12.881Z,1.20
2018-03-06T07:16:40.463Z,1.10
2018-03-06T07:19:26.880Z,1.30
2018-03-06T07:21:55.247Z,1.50
2018-03-06T07:24:22.819Z,1.50
2018-03-06T07:26:51.227Z,1.70
2018-03-06T07:29:18.875Z,1.70
2018-03-06T07:31:50.572Z,1.80
2018-03-06T07:34:18.158Z,1.90
2018-03-06T07:36:45.734Z,2.10
2018-03-06T07:39:14.124Z,2.40
2018-03-06T07:41:41.727Z,2.40
2018-03-06T07:44:09.331Z,2.60
2018-03-06T07:46:37.707Z,3.40
2018-03-06T07:51:51.905Z,3.90
2018-03-06T07:54:19.507Z,4.40
2018-03-06T07:56:47.155Z,4.80
2018-03-06T07:59:14.757Z,5.10
2018-03-06T08:01:43.135Z,5.70
2018-03-06T08:04:11.491Z,5.80
2018-03-06T08:06:39.118Z,5.80
2018-03-06T08:09:06.723Z,5.90
2018-03-06T08:11:34.308Z,6.00
2018-03-06T08:16:55.135Z,6.60
2018-03-06T08:19:22.766Z,7.40
2018-03-06T08:21:50.353Z,8.00
2018-03-06T08:24:17.979Z,8.40
2018-03-06T08:26:45.569Z,8.60
2018-03-06T08:29:13.162Z,8.80
2018-03-06T08:31:40.744Z,9.10
2018-03-06T08:34:08.351Z,9.30
2018-03-06T08:36:36.706Z,9.90
2018-03-06T08:39:04.332Z,9.90
2018-03-06T08:41:31.927Z,10.40
2018-03-06T08:44:01.500Z,10.80
2018-03-06T08:46:29.095Z,11.30
2018-03-06T08:48:56.705Z,11.50
2018-03-06T08:51:24.363Z,10.20
2018-03-06T08:53:58.395Z,9.30
2018-03-06T08:56:25.969Z,9.40
2018-03-06T08:59:05.248Z,9.50
2018-03-06T09:01:34.871Z,8.90
2018-03-06T09:04:03.191Z,8.70
2018-03-06T09:06:30.838Z,8.70
2018-03-06T09:08:58.414Z,8.30
2018-03-06T09:11:26.058Z,8.90
2018-03-06T09:13:53.625Z,9.20
2018-03-06T09:16:27.209Z,9.00
2018-03-06T09:18:54.832Z,9.50
2018-03-06T09:21:22.457Z,10.00
2018-03-06T09:23:50.100Z,9.90
2018-03-06T09:26:17.666Z,9.10
2018-03-06T09:28:45.313Z,9.10
2018-03-06T09:31:12.946Z,9.00
2018-03-06T09:33:41.519Z,9.10
2018-03-06T09:36:09.120Z,9.80
2018-03-06T09:38:36.767Z,10.20
2018-03-06T09:41:04.387Z,10.50
2018-03-06T09:49:40.470Z,10.80
2018-03-06T09:52:08.501Z,10.80
2018-03-06T09:54:36.082Z,10.80
2018-03-06T09:57:03.685Z,10.20
2018-03-06T09:59:32.072Z,10.30
2018-03-06T10:01:59.703Z,10.30
2018-03-06T10:10:18.409Z,11.00
2018-03-06T10:12:46.761Z,12.00
2018-03-06T10:15:14.410Z,11.90
2018-03-06T10:17:42.030Z,12.80
2018-03-06T10:20:09.593Z,13.20
2018-03-06T10:22:37.168Z,12.30
2018-03-06T10:25:04.726Z,11.80
2018-03-06T10:27:32.305Z,11.50
2018-03-06T10:29:59.945Z,11.60
2018-03-06T10:32:27.547Z,12.20
2018-03-06T10:34:55.135Z,12.50
2018-03-06T10:37:22.738Z,11.80
2018-03-06T10:39:50.388Z,12.20
2018-03-06T10:42:18.014Z,12.50
2018-03-06T10:44:46.370Z,12.20
2018-03-06T10:47:14.036Z,12.20
2018-03-06T10:49:41.626Z,12.50
2018-03-06T10:52:10.213Z,13.10
2018-03-06T11:00:33.446Z,12.50
2018-03-06T11:03:01.036Z,12.50
2018-03-06T11:05:28.730Z,12.10
2018-03-06T11:07:56.383Z,11.40
2018-03-06T11:10:23.938Z,11.00
2018-03-06T11:12:52.303Z,12.80
2018-03-06T11:15:19.900Z,12.80
2018-03-06T11:17:47.520Z,13.50
2018-03-06T11:20:15.167Z,12.70
2018-03-06T11:22:57.526Z,12.70
2018-03-06T11:25:25.115Z,13.00
2018-03-06T11:27:52.715Z,13.30
2018-03-06T11:30:21.030Z,12.20
2018-03-06T11:32:56.962Z,12.20
2018-03-06T11:35:26.577Z,11.30
2018-03-06T11:37:54.184Z,12.10
2018-03-06T11:40:21.823Z,12.70
2018-03-06T11:42:49.429Z,13.20
2018-03-06T11:45:17.054Z,13.80
2018-03-06T11:47:44.675Z,14.00
2018-03-06T11:50:12.250Z,13.00
2018-03-06T11:52:39.871Z,12.60
2018-03-06T11:55:07.485Z,13.30
2018-03-06T11:57:35.874Z,14.60
2018-03-06T12:00:03.476Z,14.60
2018-03-06T12:02:31.090Z,14.80
2018-03-06T12:04:59.506Z,15.10
2018-03-06T12:07:27.093Z,15.10
2018-03-06T12:09:54.719Z,15.20
2018-03-06T12:12:37.954Z,14.80
2018-03-06T12:15:05.551Z,14.80
2018-03-06T12:17:33.163Z,13.40
2018-03-06T12:20:00.805Z,13.00
2018-03-06T12:22:28.439Z,13.30
2018-03-06T12:24:56.075Z,13.30
2018-03-06T12:27:23.667Z,13.10
2018-03-06T12:29:52.007Z,12.40
2018-03-06T12:32:19.555Z,12.40
2018-03-06T12:34:47.122Z,12.50
2018-03-06T12:37:14.731Z,12.80
2018-03-06T12:39:43.105Z,12.70
2018-03-06T12:42:11.527Z,12.90
2018-03-06T12:47:51.206Z,12.90
2018-03-06T12:50:18.845Z,12.60
2018-03-06T12:52:46.449Z,12.40
2018-03-06T12:55:14.055Z,12.40
2018-03-06T13:00:55.114Z,13.30
2018-03-06T13:03:22.723Z,13.60
2018-03-06T13:05:50.276Z,13.60
2018-03-06T13:08:17.879Z,14.20
2018-03-06T13:10:46.306Z,14.50
2018-03-06T13:13:13.907Z,14.40
2018-03-06T13:15:41.522Z,13.70
2018-03-06T13:21:13.939Z,12.90
2018-03-06T13:23:43.539Z,12.90
2018-03-06T13:29:05.056Z,13.20
2018-03-06T13:37:36.235Z,15.00
2018-03-06T13:42:58.315Z,14.00
2018-03-06T13:45:25.895Z,14.00
2018-03-06T13:47:53.510Z,14.70
2018-03-06T13:50:21.074Z,15.40
2018-03-06T13:52:48.639Z,15.70
2018-03-06T13:55:16.230Z,16.00
2018-03-06T13:57:43.851Z,15.90
2018-03-06T14:00:11.410Z,15.80
2018-03-06T14:02:39.034Z,15.70
2018-03-06T14:05:07.447Z,15.60
2018-03-06T14:07:35.043Z,15.60
2018-03-06T14:10:02.654Z,15.20
2018-03-06T14:12:30.995Z,15.20
2018-03-06T14:14:58.601Z,15.20
2018-03-06T14:17:26.928Z,14.30
2018-03-06T14:19:54.510Z,14.30
2018-03-06T14:22:22.131Z,14.10
2018-03-06T14:28:04.531Z,13.00
2018-03-06T14:30:32.172Z,12.90
2018-03-06T14:33:00.543Z,12.70
2018-03-06T14:35:28.133Z,12.70
2018-03-06T14:37:55.737Z,12.70
2018-03-06T14:40:23.298Z,12.60
2018-03-06T14:42:50.935Z,12.50
2018-03-06T14:45:18.556Z,12.20
2018-03-06T14:47:46.991Z,11.80
2018-03-06T14:50:14.644Z,11.80
2018-03-06T14:52:42.294Z,12.00
2018-03-06T14:55:09.920Z,12.10
2018-03-06T15:00:33.355Z,12.10
2018-03-06T15:03:00.998Z,12.00
2018-03-06T15:05:28.610Z,11.50
2018-03-06T15:13:55.454Z,11.80
2018-03-06T15:16:23.091Z,11.70
2018-03-06T15:18:50.728Z,11.60
2018-03-06T15:21:19.091Z,11.60
2018-03-06T15:23:51.345Z,11.50
2018-03-06T15:26:18.923Z,11.50
2018-03-06T15:28:46.562Z,11.40
2018-03-06T15:31:14.171Z,11.10
2018-03-06T15:33:41.763Z,11.20
2018-03-06T15:36:09.415Z,11.30
2018-03-06T15:38:37.021Z,11.10
2018-03-06T15:41:04.663Z,11.00
2018-03-06T15:43:32.323Z,11.10
2018-03-06T15:45:59.985Z,10.80
2018-03-06T15:48:27.673Z,10.90
2018-03-06T15:50:56.064Z,10.70
2018-03-06T15:53:28.456Z,10.70
2018-03-06T15:55:56.818Z,10.60
2018-03-06T15:58:24.446Z,10.50
2018-03-06T16:00:58.835Z,10.50
2018-03-06T16:03:26.452Z,10.10
2018-03-06T16:05:58.503Z,10.00
2018-03-06T16:17:11.093Z,9.50
2018-03-06T16:19:38.710Z,9.50
2018-03-06T16:22:06.367Z,9.40
2018-03-06T16:24:34.009Z,9.20
2018-03-06T16:30:00.414Z,8.70
2018-03-06T16:32:28.828Z,8.50
2018-03-06T16:34:56.473Z,8.50
2018-03-06T16:40:24.423Z,7.90
2018-03-06T16:51:50.473Z,7.40
2018-03-06T16:54:18.112Z,7.30
2018-03-06T16:56:45.743Z,7.20
2018-03-06T16:59:14.152Z,7.10
2018-03-06T17:01:41.757Z,7.10
2018-03-06T17:04:09.412Z,7.20
2018-03-06T17:06:37.040Z,7.20
2018-03-06T17:09:04.661Z,7.20
2018-03-06T17:11:32.306Z,7.10
2018-03-06T17:13:59.980Z,7.10
2018-03-06T17:16:27.572Z,7.10
2018-03-06T17:18:55.250Z,7.00
2018-03-06T17:21:22.834Z,6.90
2018-03-06T17:23:50.491Z,6.90
2018-03-06T17:26:18.139Z,6.80
2018-03-06T17:28:45.748Z,6.80
2018-03-06T17:31:13.385Z,6.90
2018-03-06T17:33:41.016Z,6.90
2018-03-06T17:36:08.653Z,7.00
2018-03-06T17:38:36.295Z,6.90
2018-03-06T17:41:04.719Z,6.90
2018-03-06T17:43:46.610Z,6.80
2018-03-06T17:46:24.640Z,6.80
2018-03-06T17:48:52.251Z,6.80
2018-03-06T17:51:20.668Z,6.80
2018-03-06T17:53:48.281Z,6.80
2018-03-06T17:56:16.677Z,6.80
2018-03-06T17:58:45.080Z,6.70
2018-03-06T18:01:12.718Z,6.70
2018-03-06T18:03:40.348Z,6.60
2018-03-06T18:06:07.987Z,6.50
2018-03-06T18:08:35.618Z,6.40
2018-03-06T18:11:03.237Z,6.30
2018-03-06T18:13:31.635Z,6.00
2018-03-06T18:15:59.265Z,6.00
2018-03-06T18:18:26.920Z,5.90
2018-03-06T18:20:54.536Z,5.80
2018-03-06T18:23:22.944Z,5.70
2018-03-06T18:25:50.629Z,5.60
2018-03-06T18:28:18.270Z,5.50
2018-03-06T18:30:45.952Z,5.40
2018-03-06T18:33:28.209Z,5.30
2018-03-06T18:35:55.830Z,5.20
2018-03-06T18:38:24.275Z,5.30
2018-03-06T18:40:51.900Z,5.20
2018-03-06T18:43:19.540Z,5.30
2018-03-06T18:45:47.941Z,5.30
2018-03-06T18:48:15.580Z,5.20
2018-03-06T18:50:55.812Z,5.30
2018-03-06T18:53:23.488Z,5.30
2018-03-06T18:55:51.909Z,5.40
2018-03-06T18:58:19.553Z,5.40
2018-03-06T19:04:12.529Z,5.60
2018-03-06T19:07:13.687Z,5.70
2018-03-06T19:09:41.292Z,5.80
2018-03-06T19:12:10.884Z,5.90
2018-03-06T19:14:38.468Z,6.00
2018-03-06T19:23:01.436Z,6.10
2018-03-06T19:25:29.031Z,6.10
2018-03-06T19:27:57.369Z,6.20
2018-03-06T19:30:24.961Z,6.10
2018-03-06T19:32:53.407Z,6.20
2018-03-06T19:35:20.948Z,6.10
2018-03-06T19:37:48.549Z,6.20
2018-03-06T19:40:16.068Z,6.30
2018-03-06T19:42:43.653Z,6.30
2018-03-06T19:45:11.197Z,6.40
2018-03-06T19:47:38.786Z,6.40
2018-03-06T19:50:06.385Z,6.40
2018-03-06T19:52:34.005Z,6.40
2018-03-06T19:55:01.600Z,6.40
2018-03-06T19:57:29.231Z,6.40
2018-03-06T19:59:56.843Z,6.30
2018-03-06T20:02:24.469Z,6.30
2018-03-06T20:04:52.851Z,6.40
2018-03-06T20:07:21.249Z,6.50
2018-03-06T20:09:48.964Z,6.50
2018-03-06T20:12:16.572Z,6.60
2018-03-06T20:14:49.788Z,6.60
2018-03-06T20:20:34.743Z,6.60
2018-03-06T20:23:03.076Z,6.50
2018-03-06T20:25:36.266Z,6.50
2018-03-06T20:28:03.897Z,6.40
2018-03-06T20:30:37.127Z,6.40
2018-03-06T20:33:10.446Z,6.40
2018-03-06T20:35:38.835Z,6.30
2018-03-06T20:38:07.204Z,6.30
2018-03-06T20:40:35.572Z,6.30
2018-03-06T20:43:03.207Z,6.30
2018-03-06T20:45:36.432Z,6.30
2018-03-06T20:48:04.760Z,6.30
2018-03-06T20:50:32.334Z,6.30
2018-03-06T20:53:05.698Z,6.30
2018-03-06T20:55:33.304Z,6.20
2018-03-06T20:58:00.926Z,6.20
2018-03-06T21:00:28.575Z,6.20
2018-03-06T21:02:56.190Z,6.20
2018-03-06T21:05:23.836Z,6.20
2018-03-06T21:07:51.463Z,6.30
2018-03-06T21:10:19.129Z,6.30
2018-03-06T21:12:46.793Z,6.30
2018-03-06T21:15:14.412Z,6.30
2018-03-06T21:17:42.008Z,6.30
2018-03-06T21:20:09.632Z,6.20
2018-03-06T21:22:37.264Z,6.20
2018-03-06T21:25:04.863Z,6.20
2018-03-06T21:27:33.206Z,6.10
2018-03-06T21:30:00.817Z,6.00
2018-03-06T21:32:28.447Z,6.10
2018-03-06T21:34:56.040Z,6.10
2018-03-06T21:37:23.624Z,6.00
2018-03-06T21:39:51.199Z,6.00
2018-03-06T21:42:18.820Z,6.00
2018-03-06T21:44:46.449Z,6.00
2018-03-06T21:47:14.051Z,6.00
2018-03-06T21:49:41.614Z,6.00
2018-03-06T21:52:09.187Z,6.10
2018-03-06T21:54:36.794Z,6.10
2018-03-06T21:57:04.427Z,6.10
2018-03-06T21:59:32.065Z,6.10
2018-03-06T22:01:59.725Z,6.10
2018-03-06T22:04:27.353Z,6.10
2018-03-06T22:06:55.139Z,6.20
2018-03-06T22:09:22.761Z,6.20
2018-03-06T22:11:50.374Z,6.20
2018-03-06T22:14:17.993Z,6.10
2018-03-06T22:16:46.393Z,6.10
2018-03-06T22:19:14.032Z,6.10
2018-03-06T22:21:42.518Z,6.00
2018-03-06T22:24:10.870Z,6.00
2018-03-06T22:26:38.461Z,6.00
2018-03-06T22:29:06.081Z,6.00
2018-03-06T22:31:33.728Z,6.00
2018-03-06T22:34:01.366Z,6.00
2018-03-06T22:36:37.135Z,6.00
2018-03-06T22:39:04.758Z,6.00
2018-03-06T22:41:32.367Z,6.00
2018-03-06T22:43:59.944Z,6.00
2018-03-06T22:46:27.528Z,6.00
2018-03-06T22:48:55.905Z,5.90
2018-03-06T22:51:24.284Z,5.80
2018-03-06T22:53:52.637Z,5.80
2018-03-06T22:56:20.271Z,5.80
2018-03-06T22:58:47.840Z,5.80
2018-03-06T23:01:15.444Z,5.70
2018-03-06T23:03:43.824Z,5.60
2018-03-06T23:06:12.230Z,5.60
2018-03-06T23:08:39.850Z,5.60
2018-03-06T23:11:07.460Z,5.60
2018-03-06T23:13:35.047Z,5.60
2018-03-06T23:16:02.651Z,5.70
2018-03-06T23:18:30.230Z,5.70
2018-03-06T23:20:57.848Z,5.70
2018-03-06T23:23:25.434Z,5.70
2018-03-06T23:25:53.036Z,5.70
2018-03-06T23:28:20.624Z,5.70
2018-03-06T23:30:48.253Z,5.70
2018-03-06T23:33:15.892Z,5.80
2018-03-06T23:35:43.496Z,5.80
2018-03-06T23:38:11.090Z,5.80
2018-03-06T23:40:39.498Z,5.60
2018-03-06T23:43:07.165Z,5.60
2018-03-06T23:45:34.747Z,5.50
2018-03-06T23:48:02.338Z,5.50
2018-03-06T23:50:30.679Z,5.50
2018-03-06T23:52:58.292Z,5.50
2018-03-06T23:55:26.626Z,5.50
2018-03-06T23:57:54.252Z,5.50
